Time;durP1;ratioP1;P1;durP2;ratioP2;P2;SDS_P1;SDS_P2;PMS_P1;PMS_P2;Temp;Humidity;BMP_temperature;BMP_pressure;BME280_temperature;BME280_humidity;BME280_pressure;Samples;Min_cycle;Max_cycle;Signal;HPM_P1;HPM_P2
2023/05/19 00:00:43;;;;;;;;;;;;;;;;;;5046760;28;5218;-61
2023/05/19 00:03:08;;;;;;;;;;;;;;;;;;5047638;28;4743;-62
2023/05/19 00:05:35;;;;;;;;;;;;;;;;;;5048659;28;1105;-61
2023/05/19 00:08:00;;;;;;;;;;;;;;;;;;5046015;28;4627;-60
2023/05/19 00:10:30;;;;;;;;;;;;;;;;;;5046966;28;4598;-61
2023/05/19 00:12:55;;;;;;;;;;;;;;;;;;5047806;28;4876;-62
2023/05/19 00:15:21;;;;;;;;;;;;;;;;;;5047559;28;4635;-61
2023/05/19 00:17:47;;;;;;;;;;;;;;;;;;5048274;28;1096;-61
2023/05/19 00:20:13;;;;;;;;;;;;;;;;;;5047563;28;5078;-61
2023/05/19 00:22:39;;;;;;;;;;;;;;;;;;5045905;28;4470;-61
2023/05/19 00:25:05;;;;;;;;;;;;;;;;;;5047255;28;4998;-61
2023/05/19 00:27:30;;;;;;;;;;;;;;;;;;5047733;28;4954;-60
2023/05/19 00:29:55;;;;;;;;;;;;;;;;;;5046848;28;4675;-60
2023/05/19 00:32:20;;;;;;;;;;;;;;;;;;5047142;28;2432;-60
2023/05/19 00:34:47;;;;;;;;;;;;;;;;;;5048761;28;4604;-61
2023/05/19 00:37:12;;;;;;;;;;;;;;;;;;5052932;28;4456;-61
2023/05/19 00:39:38;;;;;;;;;;;;;;;;;;5049406;28;4771;-60
2023/05/19 00:42:04;;;;;;;;;;;;;;;;;;5047298;28;4471;-60
2023/05/19 00:44:30;;;;;;;;;;;;;;;;;;5052112;28;1179;-61
2023/05/19 00:46:55;;;;;;;;;;;;;;;;;;5049602;28;5122;-62
2023/05/19 00:49:20;;;;;;;;;;;;;;;;;;5066179;28;4613;-61
2023/05/19 00:51:45;;;;;;;;;;;;;;;;;;5048223;28;5098;-62
2023/05/19 00:54:11;;;;;;;;;;;;;;;;;;5049639;28;4602;-60
2023/05/19 00:56:36;;;;;;;;;;;;;;;;;;5050410;28;1761;-61
2023/05/19 00:59:01;;;;;;;;;;;;;;;;;;5051162;28;5033;-60
2023/05/19 01:01:26;;;;;;;;;;;;;;;;;;5049918;28;5111;-61
2023/05/19 01:03:52;;;;;;;;;;;;;;;;;;5050942;28;4499;-60
2023/05/19 01:06:20;;;;;;;;;;;;;;;;;;5050847;28;4979;-61
2023/05/19 01:08:46;;;;;;;;;;;;;;;;;;5051559;28;1978;-61
2023/05/19 01:11:11;;;;;;;;;;;;;;;;;;5050884;28;4429;-60
2023/05/19 01:13:36;;;;;;;;;;;;;;;;;;5051096;28;5509;-61
2023/05/19 01:16:08;;;;;;;;;;;;;;;;;;5044919;28;4882;-61
2023/05/19 01:18:54;;;;;;;;;;;;;;;;;;5050623;28;4623;-60
2023/05/19 01:21:43;;;;;;;;;;;;;;;;;;5049757;28;4469;-61
2023/05/19 01:24:08;;;;;;;;;;;;;;;;;;5049176;28;4566;-61
2023/05/19 01:26:52;;;;;;;;;;;;;;;;;;5050813;28;1579;-61
2023/05/19 01:29:29;;;;;;;;;;;;;;;;;;5050156;28;4931;-61
2023/05/19 01:31:55;;;;;;;;;;;;;;;;;;5047844;28;4509;-61
2023/05/19 01:34:20;;;;;;;;;;;;;;;;;;5045524;28;4643;-61
2023/05/19 01:36:47;;;;;;;;;;;;;;;;;;5045819;28;4698;-61
2023/05/19 01:39:12;;;;;;;;;;;;;;;;;;5046712;28;5166;-61
2023/05/19 01:41:38;;;;;;;;;;;;;;;;;;5045787;28;3253;-61
2023/05/19 01:44:03;;;;;;;;;;;;;;;;;;5048776;28;4969;-63
2023/05/19 01:46:29;;;;;;;;;;;;;;;;;;5048554;28;4531;-62
2023/05/19 01:48:54;;;;;;;;;;;;;;;;;;5049776;28;5205;-62
2023/05/19 01:51:19;;;;;;;;;;;;;;;;;;5049604;28;4545;-61
2023/05/19 01:53:44;;;;;;;;;;;;;;;;;;5049759;28;3066;-61
2023/05/19 01:56:10;;;;;;;;;;;;;;;;;;5047403;28;4954;-61
2023/05/19 01:58:45;;;;;;;;;;;;;;;;;;5049845;28;4628;-61
2023/05/19 02:01:19;;;;;;;;;;;;;;;;;;5049840;28;4511;-61
2023/05/19 02:03:44;;;;;;;;;;;;;;;;;;5049401;28;4494;-60
2023/05/19 02:06:28;;;;;;;;;;;;;;;;;;5049860;28;4531;-60
2023/05/19 02:09:17;;;;;;;;;;;;;;;;;;5049630;28;4820;-61
2023/05/19 02:11:42;;;;;;;;;;;;;;;;;;5041496;28;1482;-60
2023/05/19 02:14:19;;;;;;;;;;;;;;;;;;5049999;28;4942;-61
2023/05/19 02:16:44;;;;;;;;;;;;;;;;;;5043642;28;5102;-61
2023/05/19 02:19:26;;;;;;;;;;;;;;;;;;5049681;28;4457;-61
2023/05/19 02:21:51;;;;;;;;;;;;;;;;;;5045602;28;4479;-61
2023/05/19 02:24:17;;;;;;;;;;;;;;;;;;5062489;28;4889;-61
2023/05/19 02:26:42;;;;;;;;;;;;;;;;;;5049849;28;2056;-60
2023/05/19 02:29:08;;;;;;;;;;;;;;;;;;5049561;28;4569;-60
2023/05/19 02:31:33;;;;;;;;;;;;;;;;;;5048688;28;4478;-61
2023/05/19 02:33:58;;;;;;;;;;;;;;;;;;5076837;28;5089;-61
2023/05/19 02:36:25;;;;;;;;;;;;;;;;;;5049238;28;4933;-61
2023/05/19 02:38:50;;;;;;;;;;;;;;;;;;5049947;28;1242;-61
2023/05/19 02:41:15;;;;;;;;;;;;;;;;;;5047186;28;5015;-61
2023/05/19 02:43:41;;;;;;;;;;;;;;;;;;5049019;28;4560;-61
2023/05/19 02:46:06;;;;;;;;;;;;;;;;;;5048671;28;4433;-60
2023/05/19 02:48:31;;;;;;;;;;;;;;;;;;5049097;28;4785;-61
2023/05/19 02:50:56;;;;;;;;;;;;;;;;;;5048976;28;4488;-61
2023/05/19 02:53:22;;;;;;;;;;;;;;;;;;5045369;28;1650;-61
2023/05/19 02:55:47;;;;;;;;;;;;;;;;;;5047646;28;4532;-60
2023/05/19 02:58:12;;;;;;;;;;;;;;;;;;5048407;28;5032;-61
2023/05/19 03:00:37;;;;;;;;;;;;;;;;;;5047194;28;4547;-61
2023/05/19 03:03:03;;;;;;;;;;;;;;;;;;5048405;28;4653;-61
2023/05/19 03:05:29;;;;;;;;;;;;;;;;;;5042327;28;3250;-61
2023/05/19 03:07:54;;;;;;;;;;;;;;;;;;5048799;28;5149;-62
2023/05/19 03:10:19;;;;;;;;;;;;;;;;;;5044261;28;5124;-62
2023/05/19 03:12:45;;;;;;;;;;;;;;;;;;5062990;28;4537;-62
2023/05/19 03:15:11;;;;;;;;;;;;;;;;;;5047265;28;4514;-60
2023/05/19 03:17:38;;;;;;;;;;;;;;;;;;5045483;28;2985;-61
2023/05/19 03:20:04;;;;;;;;;;;;;;;;;;5047379;28;4445;-61
2023/05/19 03:22:29;;;;;;;;;;;;;;;;;;5047602;28;5276;-62
2023/05/19 03:24:54;;;;;;;;;;;;;;;;;;5046836;28;4585;-62
2023/05/19 03:27:20;;;;;;;;;;;;;;;;;;5048061;28;4953;-61
2023/05/19 03:29:45;;;;;;;;;;;;;;;;;;5046709;28;1983;-62
2023/05/19 03:32:10;;;;;;;;;;;;;;;;;;5048309;28;4770;-62
2023/05/19 03:34:35;;;;;;;;;;;;;;;;;;5048110;28;4648;-62
2023/05/19 03:37:01;;;;;;;;;;;;;;;;;;5047861;28;4981;-62
2023/05/19 03:39:26;;;;;;;;;;;;;;;;;;5047709;28;4553;-63
2023/05/19 03:41:51;;;;;;;;;;;;;;;;;;5046099;28;5214;-62
2023/05/19 03:44:16;;;;;;;;;;;;;;;;;;5048644;28;1097;-62
2023/05/19 03:46:42;;;;;;;;;;;;;;;;;;5048080;28;5123;-62
2023/05/19 03:49:07;;;;;;;;;;;;;;;;;;5048774;28;5466;-63
2023/05/19 03:51:33;;;;;;;;;;;;;;;;;;5046729;28;4474;-62
2023/05/19 03:53:58;;;;;;;;;;;;;;;;;;5043533;28;4901;-62
2023/05/19 03:56:26;;;;;;;;;;;;;;;;;;5048011;28;2368;-61
2023/05/19 03:58:53;;;;;;;;;;;;;;;;;;5047100;28;4801;-61
2023/05/19 04:01:18;;;;;;;;;;;;;;;;;;5040666;28;4638;-62
2023/05/19 04:03:44;;;;;;;;;;;;;;;;;;5047263;28;4679;-61
2023/05/19 04:06:09;;;;;;;;;;;;;;;;;;5046150;28;4542;-62
2023/05/19 04:08:35;;;;;;;;;;;;;;;;;;5062830;28;3393;-61
2023/05/19 04:11:00;;;;;;;;;;;;;;;;;;5046430;28;4500;-62
2023/05/19 04:13:25;;;;;;;;;;;;;;;;;;5044842;28;5113;-61
2023/05/19 04:15:50;;;;;;;;;;;;;;;;;;5047520;28;4503;-62
2023/05/19 04:18:16;;;;;;;;;;;;;;;;;;5046508;28;5071;-62
2023/05/19 04:20:41;;;;;;;;;;;;;;;;;;5044316;28;3799;-61
2023/05/19 04:23:07;;;;;;;;;;;;;;;;;;5042001;28;4973;-63
2023/05/19 04:25:34;;;;;;;;;;;;;;;;;;5046974;28;5131;-63
2023/05/19 04:27:59;;;;;;;;;;;;;;;;;;5044973;28;4652;-62
2023/05/19 04:30:25;;;;;;;;;;;;;;;;;;5046630;28;4749;-62
2023/05/19 04:32:50;;;;;;;;;;;;;;;;;;5047606;28;3151;-62
2023/05/19 04:35:18;;;;;;;;;;;;;;;;;;5047182;28;4595;-62
2023/05/19 04:37:44;;;;;;;;;;;;;;;;;;5047424;28;4476;-62
2023/05/19 04:40:11;;;;;;;;;;;;;;;;;;5061745;28;5046;-63
2023/05/19 04:42:40;;;;;;;;;;;;;;;;;;5042709;28;5143;-62
2023/05/19 04:45:07;;;;;;;;;;;;;;;;;;5046635;28;4487;-62
2023/05/19 04:47:35;;;;;;;;;;;;;;;;;;5047224;28;4924;-62
2023/05/19 04:50:01;;;;;;;;;;;;;;;;;;5044146;28;4827;-62
2023/05/19 04:52:26;;;;;;;;;;;;;;;;;;5039640;28;4641;-62
2023/05/19 04:54:51;;;;;;;;;;;;;;;;;;5046969;28;4580;-62
2023/05/19 04:57:17;;;;;;;;;;;;;;;;;;5046974;28;5018;-61
2023/05/19 04:59:42;;;;;;;;;;;;;;;;;;5047397;28;1151;-62
2023/05/19 05:02:07;;;;;;;;;;;;;;;;;;5046692;28;4603;-61
2023/05/19 05:04:33;;;;;;;;;;;;;;;;;;5046648;28;4440;-61
2023/05/19 05:06:58;;;;;;;;;;;;;;;;;;5047095;28;4623;-62
2023/05/19 05:09:23;;;;;;;;;;;;;;;;;;5047152;28;5210;-62
2023/05/19 05:11:50;;;;;;;;;;;;;;;;;;5047634;28;1149;-62
2023/05/19 05:14:15;;;;;;;;;;;;;;;;;;5046726;28;4702;-62
2023/05/19 05:16:41;;;;;;;;;;;;;;;;;;5045070;28;4506;-61
2023/05/19 05:19:06;;;;;;;;;;;;;;;;;;5046316;28;5173;-62
2023/05/19 05:21:31;;;;;;;;;;;;;;;;;;5046531;28;4840;-61
2023/05/19 05:23:57;;;;;;;;;;;;;;;;;;5045580;28;5166;-62
2023/05/19 05:26:22;;;;;;;;;;;;;;;;;;5049468;28;1161;-61
2023/05/19 05:28:48;;;;;;;;;;;;;;;;;;5049340;28;4464;-62
2023/05/19 05:31:13;;;;;;;;;;;;;;;;;;5050451;28;4980;-61
2023/05/19 05:33:39;;;;;;;;;;;;;;;;;;5043414;28;4491;-63
2023/05/19 05:36:04;;;;;;;;;;;;;;;;;;5052527;28;5130;-60
2023/05/19 05:38:29;;;;;;;;;;;;;;;;;;5050848;28;1405;-61
2023/05/19 05:40:55;;;;;;;;;;;;;;;;;;5046959;28;5029;-61
2023/05/19 05:43:20;;;;;;;;;;;;;;;;;;5050232;28;4434;-61
2023/05/19 05:45:46;;;;;;;;;;;;;;;;;;5054410;28;4687;-61
2023/05/19 05:48:12;;;;;;;;;;;;;;;;;;5050067;28;5022;-61
2023/05/19 05:50:37;;;;;;;;;;;;;;;;;;5050100;28;3215;-61
2023/05/19 05:53:02;;;;;;;;;;;;;;;;;;5040361;28;4447;-70
2023/05/19 05:55:28;;;;;;;;;;;;;;;;;;5048750;28;5245;-69
2023/05/19 05:57:55;;;;;;;;;;;;;;;;;;5051761;28;4810;-59
2023/05/19 06:00:21;;;;;;;;;;;;;;;;;;5053623;28;4521;-60
2023/05/19 06:02:48;;;;;;;;;;;;;;;;;;5049594;28;2802;-58
2023/05/19 06:05:13;;;;;;;;;;;;;;;;;;5045998;28;4395;-58
2023/05/19 06:07:39;;;;;;;;;;;;;;;;;;5063309;28;4510;-58
2023/05/19 06:10:05;;;;;;;;;;;;;;;;;;5044089;28;4461;-58
2023/05/19 06:12:30;;;;;;;;;;;;;;;;;;5058682;28;4513;-57
2023/05/19 06:14:55;;;;;;;;;;;;;;;;;;5042051;28;4701;-58
2023/05/19 06:17:20;;;;;;;;;;;;;;;;;;5047931;28;2163;-57
2023/05/19 06:19:45;;;;;;;;;;;;;;;;;;5049895;28;5056;-58
2023/05/19 06:22:11;;;;;;;;;;;;;;;;;;5035797;28;4520;-58
2023/05/19 06:24:36;;;;;;;;;;;;;;;;;;5049071;28;4444;-58
2023/05/19 06:27:01;;;;;;;;;;;;;;;;;;5049215;28;5014;-58
2023/05/19 06:29:27;;;;;;;;;;;;;;;;;;5045630;28;3246;-59
2023/05/19 06:31:52;;;;;;;;;;;;;;;;;;5048887;28;4408;-58
2023/05/19 06:34:17;;;;;;;;;;;;;;;;;;5045922;28;4684;-59
2023/05/19 06:36:42;;;;;;;;;;;;;;;;;;5049308;28;4587;-59
2023/05/19 06:39:08;;;;;;;;;;;;;;;;;;5049250;28;4790;-59
2023/05/19 06:41:33;;;;;;;;;;;;;;;;;;5046420;28;3264;-57
2023/05/19 06:43:58;;;;;;;;;;;;;;;;;;5049012;28;4573;-58
2023/05/19 06:46:24;;;;;;;;;;;;;;;;;;5048718;28;4445;-58
2023/05/19 06:48:49;;;;;;;;;;;;;;;;;;5047822;28;5183;-57
2023/05/19 06:51:20;;;;;;;;;;;;;;;;;;5048725;28;5122;-59
2023/05/19 06:53:45;;;;;;;;;;;;;;;;;;5043792;28;1673;-59
2023/05/19 06:56:10;;;;;;;;;;;;;;;;;;5047479;28;4406;-59
2023/05/19 06:58:36;;;;;;;;;;;;;;;;;;5048285;28;4511;-58
2023/05/19 07:01:02;;;;;;;;;;;;;;;;;;5045961;28;4534;-58
2023/05/19 07:03:27;;;;;;;;;;;;;;;;;;5048052;28;4456;-57
2023/05/19 07:05:52;;;;;;;;;;;;;;;;;;5048620;28;5081;-58
2023/05/19 07:08:17;;;;;;;;;;;;;;;;;;5049070;28;1101;-58
2023/05/19 07:10:42;;;;;;;;;;;;;;;;;;5047549;28;4420;-58
2023/05/19 07:13:08;;;;;;;;;;;;;;;;;;5047910;28;4450;-59
2023/05/19 07:15:33;;;;;;;;;;;;;;;;;;5048673;28;4429;-58
2023/05/19 07:17:58;;;;;;;;;;;;;;;;;;5048331;28;4521;-58
2023/05/19 07:20:24;;;;;;;;;;;;;;;;;;5048295;28;3386;-59
2023/05/19 07:22:49;;;;;;;;;;;;;;;;;;5039403;28;4818;-58
2023/05/19 07:25:14;;;;;;;;;;;;;;;;;;5046819;28;4721;-57
2023/05/19 07:27:40;;;;;;;;;;;;;;;;;;5046465;28;5086;-58
2023/05/19 07:30:05;;;;;;;;;;;;;;;;;;5048100;28;5073;-59
2023/05/19 07:32:31;;;;;;;;;;;;;;;;;;5043309;28;1326;-59
2023/05/19 07:34:56;;;;;;;;;;;;;;;;;;5047763;28;4999;-58
2023/05/19 07:37:21;;;;;;;;;;;;;;;;;;5046664;28;4678;-59
2023/05/19 07:39:47;;;;;;;;;;;;;;;;;;5047027;28;4572;-59
2023/05/19 07:42:12;;;;;;;;;;;;;;;;;;5044569;28;4947;-59
2023/05/19 07:44:37;;;;;;;;;;;;;;;;;;5048091;28;1495;-59
2023/05/19 07:47:02;;;;;;;;;;;;;;;;;;5048423;28;5031;-58
2023/05/19 07:49:28;;;;;;;;;;;;;;;;;;5046969;28;4906;-58
2023/05/19 07:51:53;;;;;;;;;;;;;;;;;;5078259;28;5268;-58
2023/05/19 07:54:18;;;;;;;;;;;;;;;;;;5048040;28;5027;-58
2023/05/19 07:56:44;;;;;;;;;;;;;;;;;;5052704;28;1143;-58
2023/05/19 07:59:09;;;;;;;;;;;;;;;;;;5058533;28;4601;-57
2023/05/19 08:01:34;;;;;;;;;;;;;;;;;;5054601;28;4445;-57
2023/05/19 08:04:00;;;;;;;;;;;;;;;;;;5057398;28;4487;-58
2023/05/19 08:06:25;;;;;;;;;;;;;;;;;;5049732;28;4686;-58
2023/05/19 08:08:51;;;;;;;;;;;;;;;;;;5051488;28;1265;-58
2023/05/19 08:11:16;;;;;;;;;;;;;;;;;;5048549;28;5147;-59
2023/05/19 08:13:41;;;;;;;;;;;;;;;;;;5049549;28;5301;-60
2023/05/19 08:16:07;;;;;;;;;;;;;;;;;;5050498;28;4991;-58
2023/05/19 08:18:32;;;;;;;;;;;;;;;;;;5065574;28;5433;-59
2023/05/19 08:20:57;;;;;;;;;;;;;;;;;;5047902;28;4679;-60
2023/05/19 08:23:22;;;;;;;;;;;;;;;;;;5050036;28;1478;-59
2023/05/19 08:25:48;;;;;;;;;;;;;;;;;;5049960;28;4516;-59
2023/05/19 08:28:13;;;;;;;;;;;;;;;;;;5045125;28;4524;-60
2023/05/19 08:30:38;;;;;;;;;;;;;;;;;;5041883;28;5069;-59
2023/05/19 08:33:03;;;;;;;;;;;;;;;;;;5044056;28;4923;-60
2023/05/19 08:35:29;;;;;;;;;;;;;;;;;;5054695;28;3270;-59
2023/05/19 08:37:54;;;;;;;;;;;;;;;;;;5048305;28;4896;-59
2023/05/19 08:40:20;;;;;;;;;;;;;;;;;;5056301;28;4549;-62
2023/05/19 08:42:45;;;;;;;;;;;;;;;;;;5049484;28;5195;-59
2023/05/19 08:45:10;;;;;;;;;;;;;;;;;;5049928;28;4499;-60
2023/05/19 08:47:36;;;;;;;;;;;;;;;;;;5050786;28;4856;-59
2023/05/19 08:50:06;;;;;;;;;;;;;;;;;;5047821;28;5029;-59
2023/05/19 08:52:37;;;;;;;;;;;;;;;;;;5051647;28;4639;-60
2023/05/19 08:55:03;;;;;;;;;;;;;;;;;;5047772;28;4904;-60
2023/05/19 08:57:29;;;;;;;;;;;;;;;;;;5056134;28;4933;-59
2023/05/19 08:59:55;;;;;;;;;;;;;;;;;;5050729;28;4669;-59
2023/05/19 09:02:20;;;;;;;;;;;;;;;;;;5034731;28;1546;-59
2023/05/19 09:04:46;;;;;;;;;;;;;;;;;;5053872;28;5036;-59
2023/05/19 09:07:15;;;;;;;;;;;;;;;;;;5050708;28;4632;-61
2023/05/19 09:09:42;;;;;;;;;;;;;;;;;;5054705;28;5027;-61
2023/05/19 09:12:08;;;;;;;;;;;;;;;;;;5053189;28;5160;-59
2023/05/19 09:14:34;;;;;;;;;;;;;;;;;;5053177;28;1169;-59
2023/05/19 09:17:00;;;;;;;;;;;;;;;;;;5052023;28;4999;-60
2023/05/19 09:19:27;;;;;;;;;;;;;;;;;;5053504;28;4669;-59
2023/05/19 09:22:07;;;;;;;;;;;;;;;;;;5058219;28;4484;-63
2023/05/19 09:24:32;;;;;;;;;;;;;;;;;;5056034;28;4508;-64
2023/05/19 09:26:58;;;;;;;;;;;;;;;;;;5045649;28;4655;-65
2023/05/19 09:29:23;;;;;;;;;;;;;;;;;;5054211;28;3488;-65
2023/05/19 09:31:49;;;;;;;;;;;;;;;;;;5061764;28;4726;-65
2023/05/19 09:34:15;;;;;;;;;;;;;;;;;;5059134;28;5645;-64
2023/05/19 09:36:41;;;;;;;;;;;;;;;;;;5062760;28;4619;-65
2023/05/19 09:39:15;;;;;;;;;;;;;;;;;;5062628;28;4463;-65
2023/05/19 09:41:41;;;;;;;;;;;;;;;;;;5058681;28;1202;-65
2023/05/19 09:44:06;;;;;;;;;;;;;;;;;;5067927;28;4457;-65
2023/05/19 09:46:34;;;;;;;;;;;;;;;;;;5061300;28;4424;-66
2023/05/19 09:48:59;;;;;;;;;;;;;;;;;;5058830;28;4914;-64
2023/05/19 09:51:24;;;;;;;;;;;;;;;;;;5056796;28;4662;-64
2023/05/19 09:53:50;;;;;;;;;;;;;;;;;;5054527;28;1753;-65
2023/05/19 09:56:16;;;;;;;;;;;;;;;;;;5053993;28;4351;-65
2023/05/19 09:58:41;;;;;;;;;;;;;;;;;;5065389;28;4463;-64
2023/05/19 10:01:07;;;;;;;;;;;;;;;;;;5048926;28;4478;-64
2023/05/19 10:03:32;;;;;;;;;;;;;;;;;;5057586;28;4465;-64
2023/05/19 10:05:57;;;;;;;;;;;;;;;;;;5056229;28;4492;-65
2023/05/19 10:08:25;;;;;;;;;;;;;;;;;;5056793;28;1167;-65
2023/05/19 10:10:50;;;;;;;;;;;;;;;;;;5050044;28;4433;-65
2023/05/19 10:13:15;;;;;;;;;;;;;;;;;;5052889;28;4449;-64
2023/05/19 10:15:44;;;;;;;;;;;;;;;;;;5051795;28;4480;-65
2023/05/19 10:18:09;;;;;;;;;;;;;;;;;;5058284;28;4700;-65
2023/05/19 10:20:35;;;;;;;;;;;;;;;;;;5056424;28;1078;-65
2023/05/19 10:23:01;;;;;;;;;;;;;;;;;;5060748;28;4441;-65
2023/05/19 10:25:27;;;;;;;;;;;;;;;;;;5051615;28;4675;-64
2023/05/19 10:27:53;;;;;;;;;;;;;;;;;;5054604;28;4740;-64
2023/05/19 10:30:25;;;;;;;;;;;;;;;;;;5082957;28;4790;-65
2023/05/19 10:32:51;;;;;;;;;;;;;;;;;;5046965;28;1195;-64
2023/05/19 10:35:35;;;;;;;;;;;;;;;;;;5064741;28;5091;-64
2023/05/19 10:38:06;;;;;;;;;;;;;;;;;;5056781;28;4852;-64
2023/05/19 10:40:52;;;;;;;;;;;;;;;;;;5060037;28;4664;-64
2023/05/19 10:43:37;;;;;;;;;;;;;;;;;;5055071;28;5200;-64
2023/05/19 10:46:03;;;;;;;;;;;;;;;;;;5055292;28;4440;-64
2023/05/19 10:48:28;;;;;;;;;;;;;;;;;;5056126;28;4813;-64
2023/05/19 10:50:54;;;;;;;;;;;;;;;;;;5054518;28;4615;-64
2023/05/19 10:53:20;;;;;;;;;;;;;;;;;;5051882;28;1408;-64
2023/05/19 10:55:48;;;;;;;;;;;;;;;;;;5058967;28;4632;-65
2023/05/19 10:58:14;;;;;;;;;;;;;;;;;;5053276;28;4588;-65
2023/05/19 11:00:40;;;;;;;;;;;;;;;;;;5050941;28;4620;-64
2023/05/19 11:03:12;;;;;;;;;;;;;;;;;;5059700;28;4630;-64
2023/05/19 11:05:37;;;;;;;;;;;;;;;;;;5056893;28;1413;-64
2023/05/19 11:08:04;;;;;;;;;;;;;;;;;;5059574;28;4598;-64
2023/05/19 11:10:30;;;;;;;;;;;;;;;;;;5050070;28;4602;-64
2023/05/19 11:12:55;;;;;;;;;;;;;;;;;;5060277;28;4473;-64
2023/05/19 11:15:21;;;;;;;;;;;;;;;;;;5058690;28;5096;-64
2023/05/19 11:17:47;;;;;;;;;;;;;;;;;;5054629;28;1440;-65
2023/05/19 11:20:25;;;;;;;;;;;;;;;;;;5046361;28;5001;-64
2023/05/19 11:23:01;;;;;;;;;;;;;;;;;;5052720;28;4718;-64
2023/05/19 11:25:48;;;;;;;;;;;;;;;;;;5043957;28;4460;-64
2023/05/19 11:28:20;;;;;;;;;;;;;;;;;;5053164;28;4440;-64
2023/05/19 11:30:48;;;;;;;;;;;;;;;;;;5047209;28;4591;-64
2023/05/19 11:33:13;;;;;;;;;;;;;;;;;;5045357;28;4529;-64
2023/05/19 11:35:38;;;;;;;;;;;;;;;;;;5055701;28;1280;-64
2023/05/19 11:38:04;;;;;;;;;;;;;;;;;;5053484;28;4482;-64
2023/05/19 11:40:29;;;;;;;;;;;;;;;;;;5053168;28;4543;-64
2023/05/19 11:42:54;;;;;;;;;;;;;;;;;;5063751;28;4657;-64
2023/05/19 11:45:23;;;;;;;;;;;;;;;;;;5065261;28;4632;-64
2023/05/19 11:47:49;;;;;;;;;;;;;;;;;;5057622;28;4824;-64
2023/05/19 11:50:14;;;;;;;;;;;;;;;;;;5055875;28;4570;-64
2023/05/19 11:52:43;;;;;;;;;;;;;;;;;;5054274;28;4637;-64
2023/05/19 11:55:08;;;;;;;;;;;;;;;;;;5051792;28;5033;-64
2023/05/19 11:57:33;;;;;;;;;;;;;;;;;;5057944;28;4478;-64
2023/05/19 12:00:01;;;;;;;;;;;;;;;;;;5049082;28;4848;-64
2023/05/19 12:02:28;;;;;;;;;;;;;;;;;;5050704;28;1142;-63
2023/05/19 12:04:53;;;;;;;;;;;;;;;;;;5054517;28;4497;-64
2023/05/19 12:07:21;;;;;;;;;;;;;;;;;;5056755;28;4433;-64
2023/05/19 12:09:46;;;;;;;;;;;;;;;;;;5052327;28;4521;-64
2023/05/19 12:12:12;;;;;;;;;;;;;;;;;;5049610;28;4658;-64
2023/05/19 12:14:37;;;;;;;;;;;;;;;;;;5048725;28;1353;-64
2023/05/19 12:17:12;;;;;;;;;;;;;;;;;;5048852;28;4431;-63
2023/05/19 12:19:38;;;;;;;;;;;;;;;;;;5058028;28;4653;-64
2023/05/19 12:22:04;;;;;;;;;;;;;;;;;;5051338;28;4796;-63
2023/05/19 12:24:29;;;;;;;;;;;;;;;;;;5050092;28;4673;-65
2023/05/19 12:27:11;;;;;;;;;;;;;;;;;;5052588;28;4651;-62
2023/05/19 12:29:37;;;;;;;;;;;;;;;;;;5051927;28;1968;-65
2023/05/19 12:32:02;;;;;;;;;;;;;;;;;;5078810;28;4462;-64
2023/05/19 12:34:27;;;;;;;;;;;;;;;;;;5054966;28;4471;-65
2023/05/19 12:36:53;;;;;;;;;;;;;;;;;;5051451;28;4840;-65
2023/05/19 12:39:18;;;;;;;;;;;;;;;;;;5061119;28;5022;-63
2023/05/19 12:41:43;;;;;;;;;;;;;;;;;;5055575;28;1872;-64
2023/05/19 12:44:15;;;;;;;;;;;;;;;;;;5050943;28;4855;-62
2023/05/19 12:46:41;;;;;;;;;;;;;;;;;;5054649;28;5241;-65
2023/05/19 12:49:06;;;;;;;;;;;;;;;;;;5052776;28;4987;-62
2023/05/19 12:51:31;;;;;;;;;;;;;;;;;;5051495;28;4547;-61
2023/05/19 12:53:57;;;;;;;;;;;;;;;;;;5054073;28;4771;-63
2023/05/19 12:56:23;;;;;;;;;;;;;;;;;;5056294;28;1169;-63
2023/05/19 12:58:52;;;;;;;;;;;;;;;;;;5054176;28;5096;-63
2023/05/19 13:01:17;;;;;;;;;;;;;;;;;;5054899;28;4485;-64
2023/05/19 13:03:42;;;;;;;;;;;;;;;;;;5053061;28;4444;-63
2023/05/19 13:06:08;;;;;;;;;;;;;;;;;;5051432;28;5155;-63
2023/05/19 13:08:33;;;;;;;;;;;;;;;;;;5066735;28;1120;-60
2023/05/19 13:10:59;;;;;;;;;;;;;;;;;;5052612;28;4533;-62
2023/05/19 13:13:24;;;;;;;;;;;;;;;;;;5064521;28;4519;-62
2023/05/19 13:15:49;;;;;;;;;;;;;;;;;;5055340;28;5108;-60
2023/05/19 13:18:15;;;;;;;;;;;;;;;;;;5052859;28;4594;-60
2023/05/19 13:20:40;;;;;;;;;;;;;;;;;;5059028;28;1185;-62
2023/05/19 13:23:06;;;;;;;;;;;;;;;;;;5056013;28;5033;-63
2023/05/19 13:25:34;;;;;;;;;;;;;;;;;;5055300;28;4443;-62
2023/05/19 13:28:02;;;;;;;;;;;;;;;;;;5061874;28;4642;-62
2023/05/19 13:30:27;;;;;;;;;;;;;;;;;;5057586;28;4653;-63
2023/05/19 13:32:53;;;;;;;;;;;;;;;;;;5052258;28;4937;-60
2023/05/19 13:35:18;;;;;;;;;;;;;;;;;;5049538;28;1238;-63
2023/05/19 13:37:43;;;;;;;;;;;;;;;;;;5059913;28;4952;-62
2023/05/19 13:40:09;;;;;;;;;;;;;;;;;;5059620;28;5088;-63
2023/05/19 13:42:34;;;;;;;;;;;;;;;;;;5052322;28;5060;-62
2023/05/19 13:45:00;;;;;;;;;;;;;;;;;;5059824;28;4619;-61
2023/05/19 13:47:25;;;;;;;;;;;;;;;;;;5054806;28;4853;-62
2023/05/19 13:49:50;;;;;;;;;;;;;;;;;;5050854;28;4619;-62
2023/05/19 13:52:16;;;;;;;;;;;;;;;;;;5057075;28;4629;-62
2023/05/19 13:54:41;;;;;;;;;;;;;;;;;;5052675;28;5010;-63
2023/05/19 13:57:06;;;;;;;;;;;;;;;;;;5055628;28;4991;-62
2023/05/19 13:59:32;;;;;;;;;;;;;;;;;;5052140;28;1187;-62
2023/05/19 14:01:57;;;;;;;;;;;;;;;;;;5055254;28;5308;-61
2023/05/19 14:04:23;;;;;;;;;;;;;;;;;;5052407;28;4514;-61
2023/05/19 14:06:48;;;;;;;;;;;;;;;;;;5077226;28;4652;-62
2023/05/19 14:09:13;;;;;;;;;;;;;;;;;;5053509;28;5269;-61
2023/05/19 14:11:39;;;;;;;;;;;;;;;;;;5049989;28;2295;-63
2023/05/19 14:14:04;;;;;;;;;;;;;;;;;;5054633;28;4473;-61
2023/05/19 14:16:29;;;;;;;;;;;;;;;;;;5048080;28;5036;-61
2023/05/19 14:18:55;;;;;;;;;;;;;;;;;;5061024;28;4664;-65
2023/05/19 14:21:20;;;;;;;;;;;;;;;;;;5045878;28;4695;-65
2023/05/19 14:23:45;;;;;;;;;;;;;;;;;;5041759;28;3376;-61
2023/05/19 14:26:10;;;;;;;;;;;;;;;;;;5054084;28;4621;-64
2023/05/19 14:28:36;;;;;;;;;;;;;;;;;;5050333;28;4575;-70
2023/05/19 14:31:01;;;;;;;;;;;;;;;;;;5050424;28;4549;-70
2023/05/19 14:33:26;;;;;;;;;;;;;;;;;;5051672;28;4588;-68
2023/05/19 14:35:52;;;;;;;;;;;;;;;;;;5058608;28;3060;-68
2023/05/19 14:38:17;;;;;;;;;;;;;;;;;;5067633;28;4551;-68
2023/05/19 14:40:43;;;;;;;;;;;;;;;;;;5063755;28;4687;-68
2023/05/19 14:43:08;;;;;;;;;;;;;;;;;;5053489;28;5060;-68
2023/05/19 14:45:34;;;;;;;;;;;;;;;;;;5049095;28;4563;-69
2023/05/19 14:47:59;;;;;;;;;;;;;;;;;;5054284;28;4809;-69
2023/05/19 14:50:25;;;;;;;;;;;;;;;;;;5059055;28;1909;-69
2023/05/19 14:52:50;;;;;;;;;;;;;;;;;;5050937;28;5039;-68
2023/05/19 14:55:15;;;;;;;;;;;;;;;;;;5051488;28;4996;-68
2023/05/19 14:57:40;;;;;;;;;;;;;;;;;;5061471;28;5108;-67
2023/05/19 15:00:08;;;;;;;;;;;;;;;;;;5062858;28;4537;-67
2023/05/19 15:02:33;;;;;;;;;;;;;;;;;;5059600;28;3233;-68
2023/05/19 15:04:59;;;;;;;;;;;;;;;;;;5050031;28;4616;-67
2023/05/19 15:07:25;;;;;;;;;;;;;;;;;;5056757;28;4394;-68
2023/05/19 15:09:51;;;;;;;;;;;;;;;;;;5050713;28;4495;-66
2023/05/19 15:12:16;;;;;;;;;;;;;;;;;;5051957;28;4479;-68
2023/05/19 15:14:41;;;;;;;;;;;;;;;;;;5058050;28;3119;-67
2023/05/19 15:17:06;;;;;;;;;;;;;;;;;;5059661;28;4654;-68
2023/05/19 15:19:32;;;;;;;;;;;;;;;;;;5050993;28;4648;-68
2023/05/19 15:21:57;;;;;;;;;;;;;;;;;;5055345;28;4637;-66
2023/05/19 15:24:23;;;;;;;;;;;;;;;;;;5052353;28;4746;-68
2023/05/19 15:26:48;;;;;;;;;;;;;;;;;;5048209;28;3268;-68
2023/05/19 15:29:13;;;;;;;;;;;;;;;;;;5050481;28;4946;-69
2023/05/19 15:31:38;;;;;;;;;;;;;;;;;;5056702;28;4501;-68
2023/05/19 15:34:04;;;;;;;;;;;;;;;;;;5052045;28;4532;-71
2023/05/19 15:36:30;;;;;;;;;;;;;;;;;;5049083;28;4963;-73
2023/05/19 15:38:55;;;;;;;;;;;;;;;;;;5038762;28;5128;-64
2023/05/19 15:41:21;;;;;;;;;;;;;;;;;;5046391;28;3324;-66
2023/05/19 15:43:46;;;;;;;;;;;;;;;;;;5051295;28;4417;-67
2023/05/19 15:46:12;;;;;;;;;;;;;;;;;;5048799;28;5124;-65
2023/05/19 15:48:37;;;;;;;;;;;;;;;;;;5044442;28;4848;-63
2023/05/19 15:51:02;;;;;;;;;;;;;;;;;;5050484;28;4509;-63
2023/05/19 15:53:28;;;;;;;;;;;;;;;;;;5050830;28;1376;-63
2023/05/19 15:55:53;;;;;;;;;;;;;;;;;;5054746;28;4547;-61
2023/05/19 15:58:18;;;;;;;;;;;;;;;;;;5062093;28;4615;-61
2023/05/19 16:00:43;;;;;;;;;;;;;;;;;;5057029;28;4457;-61
2023/05/19 16:03:09;;;;;;;;;;;;;;;;;;5052221;28;4583;-61
2023/05/19 16:05:35;;;;;;;;;;;;;;;;;;5047406;28;3193;-60
2023/05/19 16:08:00;;;;;;;;;;;;;;;;;;5044921;28;4443;-60
2023/05/19 16:10:25;;;;;;;;;;;;;;;;;;5053355;28;5153;-62
2023/05/19 16:12:50;;;;;;;;;;;;;;;;;;5057276;28;4593;-61
2023/05/19 16:15:16;;;;;;;;;;;;;;;;;;5051545;28;4519;-60
2023/05/19 16:17:41;;;;;;;;;;;;;;;;;;5050222;28;3210;-63
2023/05/19 16:20:07;;;;;;;;;;;;;;;;;;5052757;28;4911;-69
2023/05/19 16:22:32;;;;;;;;;;;;;;;;;;5054471;28;4464;-69
2023/05/19 16:24:57;;;;;;;;;;;;;;;;;;5057593;28;4897;-69
2023/05/19 16:27:22;;;;;;;;;;;;;;;;;;5059587;28;4871;-70
2023/05/19 16:29:48;;;;;;;;;;;;;;;;;;5053093;28;3385;-69
2023/05/19 16:32:13;;;;;;;;;;;;;;;;;;5049508;28;4956;-70
2023/05/19 16:34:39;;;;;;;;;;;;;;;;;;5050769;28;5092;-69
2023/05/19 16:37:04;;;;;;;;;;;;;;;;;;5051131;28;4476;-69
2023/05/19 16:39:29;;;;;;;;;;;;;;;;;;5054497;28;4495;-71
2023/05/19 16:41:54;;;;;;;;;;;;;;;;;;5053437;28;4430;-60
2023/05/19 16:44:20;;;;;;;;;;;;;;;;;;5048266;28;3253;-68
2023/05/19 16:46:45;;;;;;;;;;;;;;;;;;5034147;28;5012;-66
2023/05/19 16:49:10;;;;;;;;;;;;;;;;;;5042228;28;4983;-67
2023/05/19 16:51:35;;;;;;;;;;;;;;;;;;5048211;28;4511;-66
2023/05/19 16:54:01;;;;;;;;;;;;;;;;;;5040709;28;4654;-68
2023/05/19 16:56:26;;;;;;;;;;;;;;;;;;5041788;28;3523;-67